Time;durP1;ratioP1;P1;durP2;ratioP2;P2;SDS_P1;SDS_P2;PMS_P1;PMS_P2;Temp;Humidity;BMP_temperature;BMP_pressure;BME280_temperature;BME280_humidity;BME280_pressure;Samples;Min_cycle;Max_cycle;Signal;HPM_P1;HPM_P2
2022/03/05 00:02:32;;;;;;;18.25;10.75;;;;;;;9.33;35.10;100856.13;5021711;28;20053;-81
2022/03/05 00:05:17;;;;;;;12.75;7.80;;;;;;;9.36;35.25;100849.25;5001052;28;20045;-81
2022/03/05 00:08:03;;;;;;;21.17;9.98;;;;;;;9.49;34.63;100859.31;4999223;28;20057;-80
2022/03/05 00:10:48;;;;;;;14.60;8.90;;;;;;;9.55;34.41;100858.06;5000136;28;20057;-81
2022/03/05 00:13:35;;;;;;;19.08;9.90;;;;;;;9.53;34.28;100856.78;4994157;28;20057;-80
2022/03/05 00:16:20;;;;;;;18.10;8.95;;;;;;;9.62;34.62;100854.97;4994034;28;20053;-81
2022/03/05 00:19:05;;;;;;;12.18;8.00;;;;;;;9.60;34.62;100857.19;4997640;28;20049;-81
2022/03/05 00:21:50;;;;;;;12.88;7.57;;;;;;;9.59;33.95;100855.56;4988206;28;20061;-82
2022/03/05 00:24:34;;;;;;;13.70;8.18;;;;;;;9.72;33.53;100865.59;4994807;28;20053;-81
2022/03/05 00:27:19;;;;;;;22.60;6.72;;;;;;;9.67;33.12;100866.50;4997137;28;20415;-81
2022/03/05 00:30:04;;;;;;;10.23;6.32;;;;;;;9.75;34.09;100865.00;5001892;28;20050;-80
2022/03/05 00:32:50;;;;;;;17.67;8.77;;;;;;;9.72;32.46;100862.88;4981811;28;20519;-80
2022/03/05 00:35:34;;;;;;;10.63;6.30;;;;;;;9.72;33.15;100865.59;4985151;28;20062;-80
2022/03/05 00:38:21;;;;;;;15.02;6.95;;;;;;;9.66;32.36;100872.25;4981655;28;20054;-81
2022/03/05 00:41:06;;;;;;;10.98;6.10;;;;;;;9.61;32.72;100869.63;4973568;28;20439;-81
2022/03/05 00:43:51;;;;;;;11.90;6.28;;;;;;;9.52;33.25;100866.84;4990290;28;20049;-80
2022/03/05 00:46:35;;;;;;;19.75;7.15;;;;;;;9.56;33.41;100858.88;4990718;28;20518;-79
2022/03/05 00:49:21;;;;;;;11.68;5.25;;;;;;;9.51;33.52;100859.00;4991734;28;20053;-80
2022/03/05 00:52:05;;;;;;;10.70;5.75;;;;;;;9.56;32.74;100856.16;4989582;28;20038;-80
2022/03/05 00:54:50;;;;;;;7.57;4.78;;;;;;;9.51;33.97;100867.13;4997224;28;20415;-80
2022/03/05 00:57:35;;;;;;;7.55;4.95;;;;;;;9.54;32.58;100864.63;4992713;28;20038;-80
2022/03/05 01:00:20;;;;;;;13.43;6.20;;;;;;;9.50;33.70;100876.41;5035569;28;20061;-81
2022/03/05 01:03:05;;;;;;;13.68;6.95;;;;;;;9.41;33.29;100866.25;5008960;28;20050;-81
2022/03/05 01:05:50;;;;;;;13.60;7.20;;;;;;;9.52;33.57;100890.47;5015778;28;20050;-83
2022/03/05 01:08:35;;;;;;;9.18;5.68;;;;;;;9.57;34.31;100884.94;4987804;28;20046;-82
2022/03/05 01:11:20;;;;;;;16.30;6.25;;;;;;;9.56;32.91;100878.69;5004854;28;20053;-82
2022/03/05 01:14:07;;;;;;;13.05;5.72;;;;;;;9.50;33.76;100884.56;5004934;28;20046;-81
2022/03/05 01:16:52;;;;;;;17.02;7.72;;;;;;;9.51;33.70;100881.50;5016007;28;20543;-81
2022/03/05 01:19:37;;;;;;;11.77;7.13;;;;;;;9.43;34.68;100868.66;4999939;28;20053;-81
2022/03/05 01:22:22;;;;;;;10.48;6.10;;;;;;;9.43;36.17;100872.19;5002606;28;20048;-82
2022/03/05 01:25:07;;;;;;;10.88;6.07;;;;;;;9.45;35.33;100869.16;5002176;28;20407;-81
2022/03/05 01:27:52;;;;;;;13.90;8.45;;;;;;;9.54;35.02;100856.50;5001006;28;20061;-81
2022/03/05 01:30:38;;;;;;;11.47;6.57;;;;;;;9.41;35.30;100855.41;4995660;28;20050;-82
2022/03/05 01:33:23;;;;;;;16.20;8.57;;;;;;;9.41;35.49;100854.59;5024274;28;20796;-81
2022/03/05 01:36:08;;;;;;;12.52;7.00;;;;;;;9.38;35.85;100849.78;4999162;28;20522;-81
2022/03/05 01:38:53;;;;;;;14.15;6.93;;;;;;;9.34;35.79;100860.44;4999604;28;20057;-81
2022/03/05 01:41:38;;;;;;;16.88;8.85;;;;;;;9.31;36.29;100855.59;5031556;28;20423;-81
2022/03/05 01:44:24;;;;;;;12.90;6.85;;;;;;;9.25;36.21;100851.38;5005769;28;20053;-80
2022/03/05 01:47:08;;;;;;;20.77;10.60;;;;;;;9.22;37.02;100857.44;5004305;28;20410;-81
2022/03/05 01:49:53;;;;;;;16.63;8.25;;;;;;;9.17;37.45;100849.41;5001199;28;20049;-80
2022/03/05 01:52:39;;;;;;;18.23;7.43;;;;;;;9.14;37.93;100860.88;5001744;28;20041;-80
2022/03/05 01:55:24;;;;;;;15.43;8.27;;;;;;;9.14;37.62;100857.34;5002732;28;20423;-80
2022/03/05 01:58:09;;;;;;;24.23;12.15;;;;;;;9.05;37.43;100854.50;5001348;28;20053;-80
2022/03/05 02:00:55;;;;;;;29.83;12.85;;;;;;;9.05;37.53;100854.50;5005064;28;20053;-81
2022/03/05 02:03:40;;;;;;;20.05;8.98;;;;;;;9.04;38.00;100860.25;5000787;28;20046;-81
2022/03/05 02:06:25;;;;;;;22.52;11.05;;;;;;;9.01;37.96;100861.66;4999983;28;20050;-82
2022/03/05 02:09:10;;;;;;;19.42;10.05;;;;;;;9.04;38.20;100865.69;4998290;28;20057;-82
2022/03/05 02:11:55;;;;;;;19.15;8.98;;;;;;;8.97;37.85;100871.50;4999581;28;20068;-81
2022/03/05 02:14:40;;;;;;;17.02;8.57;;;;;;;8.94;39.16;100870.16;5023581;28;20049;-81
2022/03/05 02:17:27;;;;;;;28.47;10.23;;;;;;;8.93;38.23;100871.31;5030265;28;20050;-81
2022/03/05 02:20:12;;;;;;;23.80;13.18;;;;;;;8.97;37.52;100874.22;4997903;28;20650;-81
2022/03/05 02:22:57;;;;;;;22.33;10.23;;;;;;;8.87;38.30;100871.69;4997569;28;20045;-81
2022/03/05 02:25:57;;;;;;;17.88;9.40;;;;;;;8.85;37.87;100871.16;5002372;28;20053;-81
2022/03/05 02:28:41;;;;;;;23.40;11.73;;;;;;;8.84;38.66;100874.97;4999961;28;20104;-81
2022/03/05 02:31:26;;;;;;;20.02;10.35;;;;;;;8.80;38.34;100871.25;4998530;28;20053;-81
2022/03/05 02:34:11;;;;;;;23.40;10.97;;;;;;;8.88;37.35;100870.59;5001973;28;20614;-81
2022/03/05 02:36:56;;;;;;;22.07;11.97;;;;;;;8.85;37.42;100873.88;5000311;28;20235;-81
2022/03/05 02:39:42;;;;;;;23.27;12.13;;;;;;;8.84;36.94;100872.25;4997238;28;20053;-81
2022/03/05 02:42:27;;;;;;;27.38;12.20;;;;;;;8.84;37.17;100872.25;4998042;28;20053;-81
2022/03/05 02:45:13;;;;;;;25.05;13.63;;;;;;;8.81;36.90;100879.09;5029782;28;20049;-81
2022/03/05 02:48:02;;;;;;;20.52;10.20;;;;;;;8.82;36.86;100880.72;4992000;28;20050;-81
2022/03/05 02:50:48;;;;;;;27.35;13.38;;;;;;;8.70;37.80;100874.16;4993309;28;20403;-79
2022/03/05 02:53:33;;;;;;;22.67;13.18;;;;;;;8.80;37.91;100877.50;5025220;28;20541;-80
2022/03/05 02:56:18;;;;;;;18.83;10.77;;;;;;;8.80;37.44;100876.69;4991106;28;20065;-80
2022/03/05 02:59:03;;;;;;;23.23;10.65;;;;;;;8.68;38.04;100885.31;5000680;28;20270;-79
2022/03/05 03:01:48;;;;;;;22.63;11.68;;;;;;;8.75;37.18;100877.59;4995995;28;20443;-80
2022/03/05 03:04:33;;;;;;;22.05;12.15;;;;;;;8.61;37.98;100876.75;4995887;28;20044;-80
2022/03/05 03:07:18;;;;;;;23.10;11.80;;;;;;;8.63;37.22;100873.75;5022873;28;20053;-79
2022/03/05 03:10:05;;;;;;;24.13;14.43;;;;;;;8.59;38.42;100878.97;4997786;28;20045;-79
2022/03/05 03:12:50;;;;;;;24.67;13.32;;;;;;;8.58;38.07;100874.66;4992535;28;20289;-78
2022/03/05 03:15:35;;;;;;;24.75;12.88;;;;;;;8.51;37.85;100875.03;4997912;28;20057;-80
2022/03/05 03:18:19;;;;;;;27.77;14.67;;;;;;;8.47;37.77;100871.31;4994360;28;20053;-79
2022/03/05 03:21:04;;;;;;;20.30;11.32;;;;;;;8.56;39.13;100871.44;4997360;28;20049;-81
2022/03/05 03:23:48;;;;;;;22.20;9.90;;;;;;;8.48;37.72;100870.19;4990201;28;20068;-80
2022/03/05 03:26:34;;;;;;;18.50;9.93;;;;;;;8.45;37.51;100872.69;4997199;28;20053;-80
2022/03/05 03:29:18;;;;;;;21.33;10.50;;;;;;;8.35;38.72;100875.59;4997269;28;20069;-80
2022/03/05 03:32:04;;;;;;;21.33;10.52;;;;;;;8.38;37.80;100875.00;4994839;28;20287;-80
2022/03/05 03:34:49;;;;;;;19.35;12.00;;;;;;;8.38;39.11;100875.78;5032736;28;20053;-82
2022/03/05 03:37:35;;;;;;;19.77;10.00;;;;;;;8.39;37.70;100879.31;5034263;28;20050;-81
2022/03/05 03:40:21;;;;;;;25.50;13.43;;;;;;;8.42;37.44;100874.13;5002471;28;20053;-82
2022/03/05 03:43:05;;;;;;;16.70;10.35;;;;;;;8.39;37.58;100882.81;5002517;28;20041;-82
2022/03/05 03:45:50;;;;;;;21.23;9.88;;;;;;;8.39;37.33;100880.09;5001042;28;20045;-81
2022/03/05 03:48:35;;;;;;;18.73;9.70;;;;;;;8.36;37.08;100877.19;5001471;28;20045;-81
2022/03/05 03:51:20;;;;;;;24.53;11.63;;;;;;;8.23;37.69;100881.41;5000500;28;20049;-82
2022/03/05 03:54:05;;;;;;;19.17;10.40;;;;;;;8.23;39.03;100886.06;5029973;28;20053;-81
2022/03/05 03:56:49;;;;;;;18.90;10.25;;;;;;;8.21;37.25;100891.75;5028021;28;20061;-81
2022/03/05 03:59:36;;;;;;;22.63;11.65;;;;;;;8.26;39.12;100893.59;5005511;28;20049;-80
2022/03/05 04:02:22;;;;;;;23.35;10.90;;;;;;;8.24;39.46;100895.78;5000613;28;20065;-82
2022/03/05 04:05:07;;;;;;;24.42;12.35;;;;;;;8.26;36.88;100888.97;4998757;28;20065;-81
2022/03/05 04:10:55;;;;;;;24.27;12.80;;;;;;;8.13;38.37;100887.81;4998022;28;20050;-81
2022/03/05 04:13:40;;;;;;;15.93;8.75;;;;;;;8.11;37.37;100895.44;4989852;28;20053;-81
2022/03/05 04:16:25;;;;;;;20.13;9.30;;;;;;;8.15;37.53;100895.63;4998791;28;20073;-81
2022/03/05 04:19:10;;;;;;;23.27;11.50;;;;;;;8.13;37.71;100901.34;4999188;28;20526;-81
2022/03/05 04:21:54;;;;;;;19.85;9.70;;;;;;;8.11;38.70;100911.69;5027139;28;20277;-81
2022/03/05 04:24:40;;;;;;;16.65;9.52;;;;;;;8.13;38.25;100901.34;5030616;28;20049;-81
2022/03/05 04:27:24;;;;;;;22.65;11.35;;;;;;;8.11;37.74;100903.56;5031760;28;20045;-81
2022/03/05 04:30:10;;;;;;;15.45;8.82;;;;;;;8.20;36.83;100900.97;5029587;28;20057;-81
2022/03/05 04:32:55;;;;;;;24.35;12.88;;;;;;;8.14;37.10;100899.44;5000078;28;20415;-80
2022/03/05 04:35:40;;;;;;;24.23;11.73;;;;;;;8.05;37.31;100898.50;4995978;28;20053;-80
2022/03/05 04:38:25;;;;;;;18.60;9.57;;;;;;;8.04;38.52;100896.88;4995792;28;20053;-80
2022/03/05 04:41:10;;;;;;;18.55;8.55;;;;;;;8.09;37.69;100904.94;4998712;28;20053;-80
2022/03/05 04:43:55;;;;;;;16.40;8.73;;;;;;;8.13;38.13;100901.34;5021906;28;20041;-79
2022/03/05 04:46:40;;;;;;;17.17;8.95;;;;;;;8.10;37.38;100896.53;5017227;28;20054;-79
2022/03/05 04:49:24;;;;;;;16.50;8.85;;;;;;;8.23;36.96;100905.03;4982162;28;20531;-80
2022/03/05 04:52:09;;;;;;;18.70;11.07;;;;;;;8.29;36.82;100906.53;4993710;28;20049;-81
2022/03/05 04:54:53;;;;;;;23.13;12.77;;;;;;;8.13;37.88;100900.53;4993327;28;20427;-81
2022/03/05 04:57:39;;;;;;;16.60;8.95;;;;;;;8.25;37.04;100900.91;4998830;28;20049;-81
2022/03/05 05:00:23;;;;;;;24.08;11.15;;;;;;;8.26;37.67;100909.84;4997808;28;20053;-81
2022/03/05 05:03:08;;;;;;;17.70;10.50;;;;;;;8.07;37.00;100909.84;4994925;28;20053;-81
2022/03/05 05:05:53;;;;;;;14.70;9.25;;;;;;;8.10;36.30;100910.06;5002797;28;20050;-80
2022/03/05 05:08:46;;;;;;;32.97;19.42;;;;;;;8.10;36.94;100912.78;5349982;23;20048;31
2022/03/05 05:11:31;;;;;;;22.75;12.38;;;;;;;8.09;37.28;100913.06;4959262;28;20082;-79
2022/03/05 05:14:16;;;;;;;19.08;9.45;;;;;;;8.12;38.90;100904.38;4972702;28;20046;-79
2022/03/05 05:17:01;;;;;;;15.80;9.10;;;;;;;8.22;37.96;100908.81;4961910;28;20070;-80
2022/03/05 05:19:46;;;;;;;26.77;12.55;;;;;;;7.98;37.02;100908.88;4957996;28;20049;-79
2022/03/05 05:22:32;;;;;;;21.20;12.27;;;;;;;8.02;38.78;100902.63;4976177;28;20046;-79
2022/03/05 05:25:17;;;;;;;20.33;10.93;;;;;;;8.05;37.14;100898.50;5026563;22;20048;-73
2022/03/05 05:28:02;;;;;;;16.77;9.85;;;;;;;8.07;36.74;100901.75;5007908;28;20057;-73
2022/03/05 05:30:48;;;;;;;27.77;12.48;;;;;;;8.09;36.23;100900.34;5011121;28;20508;-73
2022/03/05 05:33:32;;;;;;;21.33;9.60;;;;;;;8.17;36.62;100909.72;5008124;28;20049;-72
2022/03/05 05:36:18;;;;;;;16.25;9.15;;;;;;;8.11;37.90;100902.75;5011244;28;20488;-72
2022/03/05 05:39:05;;;;;;;24.08;12.65;;;;;;;8.15;36.85;100901.06;4991929;28;20058;-74
2022/03/05 05:41:50;;;;;;;19.48;11.32;;;;;;;8.18;37.68;100903.16;5006075;28;20052;-74
2022/03/05 05:44:35;;;;;;;16.73;9.00;;;;;;;8.03;37.04;100904.22;5011442;28;20049;-74
2022/03/05 05:47:20;;;;;;;17.58;9.38;;;;;;;8.03;36.85;100901.50;5003173;28;20115;-74
2022/03/05 05:50:06;;;;;;;23.80;12.70;;;;;;;7.97;36.98;100904.59;5015247;28;20515;-72
2022/03/05 05:52:51;;;;;;;26.33;12.77;;;;;;;7.95;37.51;100898.66;5011417;28;20045;-72
2022/03/05 05:55:36;;;;;;;21.00;10.27;;;;;;;8.13;36.24;100905.94;5014263;28;20401;-72
2022/03/05 05:58:22;;;;;;;16.95;9.52;;;;;;;8.15;36.12;100906.47;5000478;28;20053;-72
2022/03/05 06:01:07;;;;;;;26.00;11.30;;;;;;;8.08;37.56;100909.53;5014723;28;20049;-73
2022/03/05 06:03:52;;;;;;;18.73;10.00;;;;;;;8.23;35.59;100916.63;5002426;28;20057;-73
2022/03/05 06:06:37;;;;;;;25.40;12.15;;;;;;;8.03;36.53;100916.94;5014461;28;20061;-73
2022/03/05 06:09:23;;;;;;;24.10;9.73;;;;;;;7.93;36.22;100917.09;5014568;28;20072;-73
2022/03/05 06:12:08;;;;;;;21.77;11.57;;;;;;;8.09;36.29;100918.47;5014126;28;20045;-73
2022/03/05 06:14:53;;;;;;;21.90;11.02;;;;;;;7.97;36.93;100913.53;5008885;28;20049;-73
2022/03/05 06:17:41;;;;;;;15.15;8.70;;;;;;;8.19;36.29;100918.31;5006683;28;20399;-72
2022/03/05 06:20:26;;;;;;;19.63;12.10;;;;;;;8.09;36.48;100918.47;5013584;28;20052;-71
2022/03/05 06:23:11;;;;;;;18.77;9.82;;;;;;;8.19;35.39;100921.03;5014172;28;20049;-72
2022/03/05 06:25:56;;;;;;;25.80;10.95;;;;;;;7.99;35.87;100926.75;5016363;28;20056;-73
2022/03/05 06:28:41;;;;;;;18.10;10.65;;;;;;;8.06;36.03;100919.06;5012498;28;20052;-73
2022/03/05 06:31:26;;;;;;;17.45;8.60;;;;;;;7.96;36.37;100922.75;5010277;28;20242;-73
2022/03/05 06:34:11;;;;;;;;;;;;;;;8.05;36.50;100926.41;5028150;28;20508;-72
2022/03/05 06:36:55;;;;;;;20.13;11.57;;;;;;;8.18;36.93;100932.19;5003411;28;20365;-72
2022/03/05 06:39:40;;;;;;;13.88;8.40;;;;;;;8.07;35.11;100926.91;5000039;28;20512;-73
2022/03/05 06:42:25;;;;;;;18.17;8.15;;;;;;;8.18;36.01;100930.25;5010131;28;20516;-74
2022/03/05 06:45:11;;;;;;;16.80;9.95;;;;;;;8.12;35.99;100936.88;5016337;28;20049;-74
2022/03/05 06:47:55;;;;;;;15.63;8.32;;;;;;;7.95;36.45;100941.97;5014521;28;20388;-74
2022/03/05 06:50:40;;;;;;;15.82;7.85;;;;;;;7.99;36.70;100940.28;5013840;28;20332;-74
2022/03/05 06:53:25;;;;;;;12.77;6.72;;;;;;;8.07;40.44;100945.06;5016310;28;20053;-71
2022/03/05 06:56:10;;;;;;;22.70;7.85;;;;;;;8.03;40.42;100939.41;5014589;28;20049;-72
2022/03/05 06:58:55;;;;;;;14.23;7.03;;;;;;;8.62;37.38;100931.78;5010932;28;20065;-72
2022/03/05 07:01:40;;;;;;;18.27;8.93;;;;;;;8.22;39.58;100941.34;5007856;28;20061;-72
2022/03/05 07:04:25;;;;;;;21.00;8.27;;;;;;;8.44;37.89;100938.84;5013332;28;20048;-72
2022/03/05 07:07:10;;;;;;;11.60;7.20;;;;;;;8.47;37.62;100949.09;4997317;28;20045;-72
2022/03/05 07:09:55;;;;;;;22.95;10.73;;;;;;;8.72;38.99;100947.88;5004452;28;20053;-72
2022/03/05 07:12:40;;;;;;;13.52;6.25;;;;;;;8.94;38.38;100950.72;5009051;28;20049;-70
2022/03/05 07:15:25;;;;;;;12.90;6.75;;;;;;;9.29;36.25;100949.28;5012191;28;20049;-72
2022/03/05 07:18:10;;;;;;;21.35;7.32;;;;;;;8.96;39.15;100941.19;5013125;28;20420;-72
2022/03/05 07:20:57;;;;;;;29.13;10.07;;;;;;;8.96;34.85;100952.06;4999872;28;20045;-73
2022/03/05 07:23:42;;;;;;;17.98;7.75;;;;;;;9.21;38.22;100948.06;4999868;28;20056;-73
2022/03/05 07:26:27;;;;;;;11.98;5.80;;;;;;;9.22;37.25;100943.44;5011917;28;20056;-71
2022/03/05 07:29:12;;;;;;;11.30;6.60;;;;;;;9.47;35.87;100951.09;5016231;28;20044;-74
2022/03/05 07:31:57;;;;;;;9.88;5.68;;;;;;;10.20;40.08;100953.66;5010070;28;20061;-75
2022/03/05 07:34:42;;;;;;;14.15;5.90;;;;;;;9.57;34.89;100953.59;5012608;28;20061;-74
2022/03/05 07:37:27;;;;;;;11.00;5.80;;;;;;;10.05;35.84;100961.31;5018319;28;20056;-71
2022/03/05 07:40:12;;;;;;;;;;;;;;;10.86;33.23;100960.22;5013150;28;20048;-70
2022/03/05 07:42:57;;;;;;;15.18;6.47;;;;;;;10.41;35.38;100958.59;5012887;28;19913;-71
2022/03/05 07:45:42;;;;;;;8.80;5.05;;;;;;;10.50;34.88;100959.47;5024567;28;20049;-70
2022/03/05 07:48:27;;;;;;;8.18;4.93;;;;;;;10.42;34.08;100954.75;5013835;28;20128;-70
2022/03/05 07:51:12;;;;;;;11.27;5.47;;;;;;;10.55;37.48;100957.44;5007536;28;20045;-75
2022/03/05 07:53:57;;;;;;;12.95;5.28;;;;;;;13.53;38.55;100971.38;5018236;28;20065;-69
2022/03/05 07:56:43;;;;;;;9.35;4.93;;;;;;;14.34;36.17;100963.63;5016930;28;20053;-70
2022/03/05 07:59:28;;;;;;;22.95;7.05;;;;;;;13.82;33.95;100968.63;5014242;28;20064;-71
2022/03/05 08:02:15;;;;;;;15.40;6.15;;;;;;;13.30;33.37;100970.84;5009798;28;20160;-71
2022/03/05 08:05:00;;;;;;;12.95;6.95;;;;;;;12.93;32.51;100982.47;5012669;28;20496;-71
2022/03/05 08:07:45;;;;;;;12.68;6.07;;;;;;;13.06;30.46;100978.72;5013481;28;20041;-71
2022/03/05 08:10:30;;;;;;;16.50;5.30;;;;;;;12.08;28.45;100978.63;5011579;28;20052;-71
2022/03/05 08:13:15;;;;;;;10.88;4.85;;;;;;;13.18;30.92;100978.91;5012207;28;20049;-71
2022/03/05 08:16:00;;;;;;;7.28;4.60;;;;;;;13.42;29.44;100981.06;5011155;28;20131;-71
2022/03/05 08:18:45;;;;;;;10.75;5.80;;;;;;;13.36;29.26;100974.19;5012363;28;20067;-71
2022/03/05 08:21:30;;;;;;;6.95;4.28;;;;;;;12.74;28.70;100980.09;5001513;28;20052;-70
2022/03/05 08:24:15;;;;;;;12.60;5.65;;;;;;;12.98;29.77;100985.03;5011954;28;20698;-70
2022/03/05 08:27:00;;;;;;;11.15;5.93;;;;;;;13.02;28.41;100980.50;5016242;28;20041;-70
2022/03/05 08:29:46;;;;;;;13.55;6.43;;;;;;;13.08;28.34;100979.22;5001172;28;20046;-70
2022/03/05 08:32:31;;;;;;;13.57;5.90;;;;;;;12.81;28.27;100975.72;5011935;28;20049;-70
2022/03/05 08:35:17;;;;;;;17.17;6.38;;;;;;;13.23;28.70;100976.78;5012211;28;20065;-70
2022/03/05 08:38:02;;;;;;;23.15;5.82;;;;;;;12.83;29.15;100980.88;5017682;28;20523;-73
2022/03/05 08:40:47;;;;;;;9.15;3.75;;;;;;;11.32;27.60;100973.41;4999473;28;20049;-74
2022/03/05 08:43:31;;;;;;;9.10;5.38;;;;;;;10.82;28.79;100974.75;5001361;28;20052;-74
2022/03/05 08:46:17;;;;;;;6.35;4.38;;;;;;;10.69;30.45;100973.69;5009381;28;20041;-74
2022/03/05 08:49:03;;;;;;;11.98;4.82;;;;;;;10.86;31.67;100975.72;5009037;28;20052;-73
2022/03/05 08:51:48;;;;;;;12.68;5.55;;;;;;;10.89;32.10;100973.19;5012372;28;20045;-74
2022/03/05 08:54:33;;;;;;;10.40;5.28;;;;;;;10.86;30.32;100970.28;5011457;28;20049;-73
2022/03/05 08:57:18;;;;;;;6.32;4.18;;;;;;;10.92;31.28;100967.09;5011823;28;20045;-73
2022/03/05 09:00:05;;;;;;;7.32;4.00;;;;;;;11.19;32.96;100971.56;5011718;28;20057;-74
2022/03/05 09:02:51;;;;;;;9.93;5.05;;;;;;;11.11;29.93;100964.19;5024842;28;20060;-74
2022/03/05 09:05:36;;;;;;;17.00;6.10;;;;;;;10.97;31.77;100966.97;4997733;28;20593;-74
2022/03/05 09:08:21;;;;;;;8.10;3.78;;;;;;;11.04;32.05;100967.34;5010258;28;20045;-74
2022/03/05 09:11:06;;;;;;;20.73;5.93;;;;;;;10.89;31.00;100959.56;5000625;28;20053;-73
2022/03/05 09:13:51;;;;;;;7.22;4.63;;;;;;;10.55;30.79;100967.50;5011425;28;20044;-74
2022/03/05 09:16:37;;;;;;;18.85;7.68;;;;;;;10.41;30.21;100967.56;5011593;28;20405;-74
2022/03/05 09:19:22;;;;;;;14.23;5.95;;;;;;;10.42;29.90;100962.91;5001034;28;20045;-74
2022/03/05 09:22:09;;;;;;;9.75;6.05;;;;;;;10.87;34.74;100969.19;5017295;28;20049;-74
2022/03/05 09:24:54;;;;;;;15.60;6.45;;;;;;;10.90;32.92;100965.81;5032300;28;20393;-73
2022/03/05 09:27:40;;;;;;;9.68;5.40;;;;;;;10.85;31.15;100963.22;5000727;28;20416;-74
2022/03/05 09:30:24;;;;;;;16.17;6.00;;;;;;;10.86;30.55;100960.22;5023703;28;20400;-74
2022/03/05 09:33:11;;;;;;;8.70;5.43;;;;;;;10.88;32.96;100963.41;5021144;28;20065;-74
2022/03/05 09:35:55;;;;;;;15.27;7.43;;;;;;;10.92;32.43;100956.22;5012031;28;20041;-73
2022/03/05 09:38:40;;;;;;;10.50;5.57;;;;;;;10.80;32.17;100956.00;5022215;28;20049;-73
2022/03/05 09:41:25;;;;;;;10.75;4.85;;;;;;;10.60;28.03;100968.19;5027577;28;20048;-73
2022/03/05 09:44:10;;;;;;;10.70;5.82;;;;;;;10.37;28.23;100957.59;5032135;28;20057;-74
2022/03/05 09:46:56;;;;;;;10.65;6.30;;;;;;;10.45;31.33;100954.16;5016078;28;20408;-74
2022/03/05 09:49:40;;;;;;;15.00;7.10;;;;;;;10.20;28.49;100956.34;5014645;28;20056;-74
2022/03/05 09:52:25;;;;;;;9.32;5.30;;;;;;;10.08;28.05;100944.38;5015151;28;20053;-74
2022/03/05 09:55:11;;;;;;;13.73;6.63;;;;;;;10.04;30.02;100949.63;5014737;28;20060;-74
2022/03/05 09:57:56;;;;;;;8.77;5.22;;;;;;;10.10;30.07;100942.97;5017789;28;20041;-74
2022/03/05 10:00:40;;;;;;;15.43;7.95;;;;;;;9.92;28.15;100937.66;5021722;28;20053;-73
2022/03/05 10:03:27;;;;;;;12.93;6.40;;;;;;;10.30;30.33;100941.72;4995345;28;20061;-74
2022/03/05 10:06:23;;;;;;;19.08;8.40;;;;;;;10.39;29.01;100945.31;4994477;28;20057;-74
2022/03/05 10:09:21;;;;;;;19.80;8.52;;;;;;;10.29;27.85;100946.34;4997126;28;20055;-74
2022/03/05 10:12:32;;;;;;;17.08;8.05;;;;;;;10.54;30.71;100927.81;5001387;28;20056;-74
2022/03/05 10:15:17;;;;;;;18.23;7.35;;;;;;;10.44;31.24;100944.38;5012705;28;20042;-74
2022/03/05 10:18:03;;;;;;;15.70;7.97;;;;;;;10.31;30.87;100937.09;5001332;28;20413;-74
2022/03/05 10:20:50;;;;;;;12.00;6.43;;;;;;;10.39;27.38;100933.63;4999641;28;20057;-74
2022/03/05 10:23:38;;;;;;;13.68;8.07;;;;;;;10.36;27.69;100934.25;5014402;28;20053;-74
2022/03/05 10:26:24;;;;;;;20.60;8.20;;;;;;;10.38;27.87;100926.59;5012196;28;21026;-74
2022/03/05 10:29:26;;;;;;;14.43;7.40;;;;;;;10.61;32.68;100922.78;5013514;28;20044;-74
2022/03/05 10:32:12;;;;;;;16.63;9.52;;;;;;;10.54;27.82;100925.09;5012177;28;20508;-74
2022/03/05 10:34:56;;;;;;;13.77;7.68;;;;;;;10.75;32.24;100918.06;5012131;28;20049;-74
2022/03/05 10:37:51;;;;;;;21.38;7.05;;;;;;;10.55;28.25;100921.28;5012836;28;20053;-75
2022/03/05 10:40:36;;;;;;;14.35;8.27;;;;;;;10.49;27.39;100917.88;5011645;28;20053;-73
2022/03/05 10:43:22;;;;;;;11.88;7.25;;;;;;;10.44;27.44;100922.63;5006894;28;20608;-73
2022/03/05 10:46:06;;;;;;;18.40;8.98;;;;;;;10.50;26.96;100913.25;5014481;28;20053;-72
2022/03/05 10:48:51;;;;;;;10.55;6.72;;;;;;;10.49;27.57;100917.06;5014282;28;20409;-72
2022/03/05 10:51:37;;;;;;;13.20;7.53;;;;;;;10.57;27.10;100919.03;5013688;28;20052;-74
2022/03/05 10:54:40;;;;;;;14.88;9.15;;;;;;;10.64;27.18;100919.41;5013734;28;20533;-71
2022/03/05 10:57:28;;;;;;;20.05;9.18;;;;;;;10.62;27.58;100918.91;5013566;28;20061;-75
2022/03/05 11:00:14;;;;;;;15.85;9.45;;;;;;;10.64;27.12;100919.41;5013783;28;20049;-76
2022/03/05 11:03:04;;;;;;;16.17;9.73;;;;;;;10.61;26.95;100926.28;5013680;28;20109;-76
2022/03/05 11:05:49;;;;;;;16.50;9.23;;;;;;;10.69;27.51;100916.56;5005394;28;20052;-76
2022/03/05 11:08:33;;;;;;;12.05;7.30;;;;;;;10.73;27.94;100912.09;5005567;28;20049;-76
2022/03/05 11:11:22;;;;;;;15.13;9.60;;;;;;;10.43;27.35;100918.31;5013682;28;20417;-76
2022/03/05 11:14:14;;;;;;;17.27;9.80;;;;;;;10.60;27.80;100908.38;5013675;28;20056;-76
2022/03/05 11:17:00;;;;;;;17.90;9.63;;;;;;;10.72;28.22;100900.41;5013372;28;20081;-76
2022/03/05 11:19:45;;;;;;;17.05;9.38;;;;;;;10.81;27.56;100905.13;5002398;28;20053;-76
2022/03/05 11:22:31;;;;;;;17.48;9.88;;;;;;;10.92;27.68;100904.53;5004919;28;20509;-75
2022/03/05 11:25:20;;;;;;;23.42;9.88;;;;;;;11.12;27.60;100898.53;5003762;28;20064;-76
2022/03/05 11:28:08;;;;;;;17.63;9.80;;;;;;;10.98;26.51;100880.72;4995061;28;20041;-76
2022/03/05 11:30:56;;;;;;;19.17;10.48;;;;;;;10.99;27.36;100896.72;4952507;29;20054;-75
2022/03/05 11:33:44;;;;;;;19.85;9.48;;;;;;;11.04;27.08;100891.16;4955424;29;20667;-75
2022/03/05 11:36:32;;;;;;;20.30;10.25;;;;;;;10.99;27.61;100891.28;4946780;29;20545;-73
2022/03/05 11:39:37;;;;;;;24.27;9.73;;;;;;;11.02;27.63;100889.88;4936060;29;20044;-73
2022/03/05 11:42:38;;;;;;;15.57;8.75;;;;;;;10.99;28.34;100888.56;4935946;29;20062;-74
2022/03/05 11:45:27;;;;;;;21.65;9.32;;;;;;;11.00;27.84;100882.00;4934828;29;20063;-73
2022/03/05 11:48:22;;;;;;;15.13;10.05;;;;;;;11.03;27.62;100878.66;4936530;29;20046;-74
2022/03/05 11:51:16;;;;;;;43.22;11.07;;;;;;;11.20;26.69;100869.75;4935756;29;20439;-74
2022/03/05 11:54:13;;;;;;;17.13;9.68;;;;;;;11.30;26.38;100876.84;4935934;29;20048;-75
2022/03/05 11:57:11;;;;;;;16.20;9.70;;;;;;;11.44;26.46;100866.59;4931220;29;20621;-74
2022/03/05 12:00:03;;;;;;;21.02;9.70;;;;;;;11.47;26.60;100860.53;4916501;29;20079;-74
2022/03/05 12:02:58;;;;;;;16.40;9.23;;;;;;;11.34;26.51;100851.38;4922843;29;20066;-75
2022/03/05 12:05:46;;;;;;;17.33;10.23;;;;;;;11.49;26.46;100853.66;4916491;29;20051;-75
2022/03/05 12:08:32;;;;;;;22.90;10.50;;;;;;;11.34;27.45;100842.41;4935530;29;20044;-75
2022/03/05 12:11:20;;;;;;;16.42;9.90;;;;;;;11.35;28.71;100836.66;4935328;29;20051;-75
2022/03/05 12:14:07;;;;;;;19.95;10.75;;;;;;;11.54;26.53;100845.31;4935183;29;20066;-75
2022/03/05 12:16:51;;;;;;;16.30;9.88;;;;;;;11.72;27.13;100834.47;4935117;29;20047;-75
2022/03/05 12:19:44;;;;;;;12.38;7.53;;;;;;;11.87;26.86;100836.75;4935160;29;20070;-74
2022/03/05 12:22:31;;;;;;;16.75;10.73;;;;;;;11.85;26.64;100834.34;4934780;29;20058;-74
2022/03/05 12:25:15;;;;;;;17.05;10.15;;;;;;;12.10;26.04;100829.19;4940325;29;20051;-74
2022/03/05 12:28:03;;;;;;;14.18;8.48;;;;;;;12.15;25.72;100831.75;4940226;29;20044;-73
2022/03/05 12:30:48;;;;;;;16.25;9.75;;;;;;;12.28;25.85;100825.31;4934740;29;20055;-75
2022/03/05 12:33:36;;;;;;;14.45;8.63;;;;;;;12.35;25.16;100815.50;4935076;29;20642;-75
2022/03/05 12:36:22;;;;;;;20.67;11.25;;;;;;;12.43;25.06;100814.72;4937876;29;20050;-74
2022/03/05 12:39:07;;;;;;;24.30;12.07;;;;;;;12.54;24.95;100814.34;4935119;29;20421;-74
2022/03/05 12:41:52;;;;;;;16.40;7.55;;;;;;;12.59;25.11;100806.00;4935125;29;20411;-76
2022/03/05 12:44:39;;;;;;;14.18;7.85;;;;;;;12.65;25.42;100783.63;4936459;29;20055;-73
2022/03/05 12:47:34;;;;;;;18.42;10.45;;;;;;;12.71;25.47;100790.53;4935520;29;20431;-74
2022/03/05 12:50:25;;;;;;;15.95;9.80;;;;;;;12.63;25.29;100787.84;4935019;29;20043;-76
2022/03/05 12:53:18;;;;;;;18.02;9.95;;;;;;;12.78;25.67;100787.28;4940565;29;20059;-75